sensor_id;sensor_type;location;lat;lon;timestamp;P1;durP1;ratioP1;P2;durP2;ratioP2
18881;SDS011;9573;50.948;11.600;2022-10-16T00:01:05;4.30;;;2.00;;
18881;SDS011;9573;50.948;11.600;2022-10-16T00:03:35;4.77;;;2.10;;
18881;SDS011;9573;50.948;11.600;2022-10-16T00:06:02;4.17;;;1.90;;
18881;SDS011;9573;50.948;11.600;2022-10-16T00:08:30;6.67;;;2.10;;
18881;SDS011;9573;50.948;11.600;2022-10-16T00:11:01;4.27;;;2.03;;
18881;SDS011;9573;50.948;11.600;2022-10-16T00:13:30;4.63;;;2.10;;
18881;SDS011;9573;50.948;11.600;2022-10-16T00:15:59;6.57;;;2.50;;
18881;SDS011;9573;50.948;11.600;2022-10-16T00:18:27;5.43;;;2.30;;
18881;SDS011;9573;50.948;11.600;2022-10-16T00:21:00;3.23;;;2.10;;
18881;SDS011;9573;50.948;11.600;2022-10-16T00:23:29;7.77;;;2.50;;
18881;SDS011;9573;50.948;11.600;2022-10-16T00:25:57;6.73;;;2.10;;
18881;SDS011;9573;50.948;11.600;2022-10-16T00:28:26;3.63;;;2.03;;
18881;SDS011;9573;50.948;11.600;2022-10-16T00:30:54;6.97;;;2.30;;
18881;SDS011;9573;50.948;11.600;2022-10-16T00:33:21;3.87;;;1.80;;
18881;SDS011;9573;50.948;11.600;2022-10-16T00:35:49;4.23;;;2.40;;
18881;SDS011;9573;50.948;11.600;2022-10-16T00:38:17;3.60;;;2.10;;
18881;SDS011;9573;50.948;11.600;2022-10-16T00:40:44;5.90;;;2.00;;
18881;SDS011;9573;50.948;11.600;2022-10-16T00:43:12;5.77;;;2.10;;
18881;SDS011;9573;50.948;11.600;2022-10-16T00:45:59;4.87;;;2.23;;
18881;SDS011;9573;50.948;11.600;2022-10-16T00:48:28;4.63;;;2.10;;
18881;SDS011;9573;50.948;11.600;2022-10-16T00:50:55;5.40;;;2.40;;
18881;SDS011;9573;50.948;11.600;2022-10-16T00:53:25;7.20;;;2.57;;
18881;SDS011;9573;50.948;11.600;2022-10-16T00:55:54;8.30;;;2.67;;
18881;SDS011;9573;50.948;11.600;2022-10-16T00:58:21;7.43;;;2.50;;
18881;SDS011;9573;50.948;11.600;2022-10-16T01:00:48;8.17;;;3.00;;
18881;SDS011;9573;50.948;11.600;2022-10-16T01:03:25;8.87;;;2.50;;
18881;SDS011;9573;50.948;11.600;2022-10-16T01:05:58;6.93;;;2.40;;
18881;SDS011;9573;50.948;11.600;2022-10-16T01:08:44;6.63;;;2.20;;
18881;SDS011;9573;50.948;11.600;2022-10-16T01:11:23;3.87;;;1.90;;
18881;SDS011;9573;50.948;11.600;2022-10-16T01:14:00;4.13;;;1.80;;
18881;SDS011;9573;50.948;11.600;2022-10-16T01:16:36;5.30;;;2.20;;
18881;SDS011;9573;50.948;11.600;2022-10-16T01:19:12;3.00;;;1.90;;
18881;SDS011;9573;50.948;11.600;2022-10-16T01:21:46;6.93;;;2.10;;
18881;SDS011;9573;50.948;11.600;2022-10-16T01:24:17;5.77;;;2.00;;
18881;SDS011;9573;50.948;11.600;2022-10-16T01:27:13;5.37;;;2.00;;
18881;SDS011;9573;50.948;11.600;2022-10-16T01:29:48;5.20;;;2.10;;
18881;SDS011;9573;50.948;11.600;2022-10-16T01:32:23;4.57;;;2.10;;
18881;SDS011;9573;50.948;11.600;2022-10-16T01:34:57;6.83;;;2.60;;
18881;SDS011;9573;50.948;11.600;2022-10-16T01:37:31;5.90;;;2.27;;
18881;SDS011;9573;50.948;11.600;2022-10-16T01:40:05;6.13;;;2.00;;
18881;SDS011;9573;50.948;11.600;2022-10-16T01:42:39;7.77;;;2.23;;
18881;SDS011;9573;50.948;11.600;2022-10-16T01:45:09;4.93;;;2.00;;
18881;SDS011;9573;50.948;11.600;2022-10-16T01:47:39;8.33;;;2.40;;
18881;SDS011;9573;50.948;11.600;2022-10-16T01:50:08;7.87;;;2.60;;
18881;SDS011;9573;50.948;11.600;2022-10-16T01:52:37;7.63;;;2.30;;
18881;SDS011;9573;50.948;11.600;2022-10-16T01:55:10;8.73;;;2.53;;
18881;SDS011;9573;50.948;11.600;2022-10-16T01:57:44;6.00;;;2.43;;
18881;SDS011;9573;50.948;11.600;2022-10-16T02:00:14;6.27;;;2.40;;
18881;SDS011;9573;50.948;11.600;2022-10-16T02:02:44;7.03;;;2.40;;
18881;SDS011;9573;50.948;11.600;2022-10-16T02:05:16;8.67;;;3.07;;
18881;SDS011;9573;50.948;11.600;2022-10-16T02:07:48;6.77;;;2.70;;
18881;SDS011;9573;50.948;11.600;2022-10-16T02:10:16;7.33;;;2.50;;
18881;SDS011;9573;50.948;11.600;2022-10-16T02:12:45;5.80;;;2.60;;
18881;SDS011;9573;50.948;11.600;2022-10-16T02:15:17;7.80;;;2.60;;
18881;SDS011;9573;50.948;11.600;2022-10-16T02:17:44;6.83;;;2.60;;
18881;SDS011;9573;50.948;11.600;2022-10-16T02:20:11;6.87;;;2.20;;
18881;SDS011;9573;50.948;11.600;2022-10-16T02:22:39;4.70;;;2.60;;
18881;SDS011;9573;50.948;11.600;2022-10-16T02:25:10;5.63;;;2.50;;
18881;SDS011;9573;50.948;11.600;2022-10-16T02:27:44;3.87;;;2.20;;
18881;SDS011;9573;50.948;11.600;2022-10-16T02:30:21;5.43;;;2.20;;
18881;SDS011;9573;50.948;11.600;2022-10-16T02:32:55;5.77;;;2.40;;
18881;SDS011;9573;50.948;11.600;2022-10-16T02:35:25;8.47;;;2.83;;
18881;SDS011;9573;50.948;11.600;2022-10-16T02:37:53;6.30;;;2.70;;
18881;SDS011;9573;50.948;11.600;2022-10-16T02:40:21;3.93;;;2.50;;
18881;SDS011;9573;50.948;11.600;2022-10-16T02:42:51;5.47;;;2.10;;
18881;SDS011;9573;50.948;11.600;2022-10-16T02:45:19;8.27;;;2.20;;
18881;SDS011;9573;50.948;11.600;2022-10-16T02:47:47;6.63;;;2.40;;
18881;SDS011;9573;50.948;11.600;2022-10-16T02:50:15;5.83;;;2.50;;
18881;SDS011;9573;50.948;11.600;2022-10-16T02:52:42;9.90;;;2.90;;
18881;SDS011;9573;50.948;11.600;2022-10-16T02:55:09;6.93;;;2.60;;
18881;SDS011;9573;50.948;11.600;2022-10-16T02:57:36;4.80;;;2.10;;
18881;SDS011;9573;50.948;11.600;2022-10-16T03:00:07;4.33;;;2.60;;
18881;SDS011;9573;50.948;11.600;2022-10-16T03:02:36;6.60;;;1.93;;
18881;SDS011;9573;50.948;11.600;2022-10-16T03:05:04;3.93;;;2.30;;
18881;SDS011;9573;50.948;11.600;2022-10-16T03:07:32;6.03;;;2.30;;
18881;SDS011;9573;50.948;11.600;2022-10-16T03:09:59;2.63;;;2.00;;
18881;SDS011;9573;50.948;11.600;2022-10-16T03:12:26;6.10;;;2.70;;
18881;SDS011;9573;50.948;11.600;2022-10-16T03:14:53;6.27;;;2.47;;
18881;SDS011;9573;50.948;11.600;2022-10-16T03:17:23;4.83;;;2.50;;
18881;SDS011;9573;50.948;11.600;2022-10-16T03:19:50;6.47;;;2.60;;
18881;SDS011;9573;50.948;11.600;2022-10-16T03:22:17;7.63;;;2.60;;
18881;SDS011;9573;50.948;11.600;2022-10-16T03:24:44;5.23;;;2.30;;
18881;SDS011;9573;50.948;11.600;2022-10-16T03:27:11;4.17;;;2.40;;
18881;SDS011;9573;50.948;11.600;2022-10-16T03:29:38;6.57;;;2.30;;
18881;SDS011;9573;50.948;11.600;2022-10-16T03:32:06;4.90;;;2.10;;
18881;SDS011;9573;50.948;11.600;2022-10-16T03:34:34;7.17;;;2.40;;
18881;SDS011;9573;50.948;11.600;2022-10-16T03:37:01;9.27;;;2.97;;
18881;SDS011;9573;50.948;11.600;2022-10-16T03:39:28;3.53;;;1.90;;
18881;SDS011;9573;50.948;11.600;2022-10-16T03:41:55;7.17;;;2.37;;
18881;SDS011;9573;50.948;11.600;2022-10-16T03:44:22;3.17;;;2.10;;
18881;SDS011;9573;50.948;11.600;2022-10-16T03:46:49;3.50;;;2.40;;
18881;SDS011;9573;50.948;11.600;2022-10-16T03:49:16;5.53;;;2.20;;
18881;SDS011;9573;50.948;11.600;2022-10-16T03:51:45;6.83;;;2.40;;
18881;SDS011;9573;50.948;11.600;2022-10-16T03:54:12;6.27;;;2.33;;
18881;SDS011;9573;50.948;11.600;2022-10-16T03:56:39;5.50;;;2.30;;
18881;SDS011;9573;50.948;11.600;2022-10-16T03:59:06;4.70;;;2.83;;
18881;SDS011;9573;50.948;11.600;2022-10-16T04:01:33;8.90;;;2.40;;
18881;SDS011;9573;50.948;11.600;2022-10-16T04:04:00;10.10;;;2.50;;
18881;SDS011;9573;50.948;11.600;2022-10-16T04:06:27;4.70;;;2.13;;
18881;SDS011;9573;50.948;11.600;2022-10-16T04:08:56;6.27;;;2.40;;
18881;SDS011;9573;50.948;11.600;2022-10-16T04:11:23;4.77;;;2.23;;
18881;SDS011;9573;50.948;11.600;2022-10-16T04:13:50;5.93;;;2.13;;
18881;SDS011;9573;50.948;11.600;2022-10-16T04:16:17;3.47;;;2.40;;
18881;SDS011;9573;50.948;11.600;2022-10-16T04:18:44;6.70;;;2.60;;
18881;SDS011;9573;50.948;11.600;2022-10-16T04:21:11;5.43;;;2.80;;
18881;SDS011;9573;50.948;11.600;2022-10-16T04:23:38;3.90;;;2.57;;
18881;SDS011;9573;50.948;11.600;2022-10-16T04:26:07;8.70;;;2.57;;
18881;SDS011;9573;50.948;11.600;2022-10-16T04:28:35;7.37;;;3.20;;
18881;SDS011;9573;50.948;11.600;2022-10-16T04:31:03;8.63;;;3.10;;
18881;SDS011;9573;50.948;11.600;2022-10-16T04:33:30;7.33;;;2.73;;
18881;SDS011;9573;50.948;11.600;2022-10-16T04:35:58;3.63;;;2.50;;
18881;SDS011;9573;50.948;11.600;2022-10-16T04:38:26;6.43;;;2.80;;
18881;SDS011;9573;50.948;11.600;2022-10-16T04:40:53;6.57;;;2.87;;
18881;SDS011;9573;50.948;11.600;2022-10-16T04:43:22;7.27;;;3.00;;
18881;SDS011;9573;50.948;11.600;2022-10-16T04:45:49;8.23;;;2.87;;
18881;SDS011;9573;50.948;11.600;2022-10-16T04:48:16;7.43;;;2.70;;
18881;SDS011;9573;50.948;11.600;2022-10-16T04:50:44;4.07;;;2.70;;
18881;SDS011;9573;50.948;11.600;2022-10-16T04:53:11;9.43;;;2.53;;
18881;SDS011;9573;50.948;11.600;2022-10-16T04:55:38;6.73;;;2.97;;
18881;SDS011;9573;50.948;11.600;2022-10-16T04:58:05;4.13;;;2.73;;
18881;SDS011;9573;50.948;11.600;2022-10-16T05:00:34;5.90;;;2.80;;
18881;SDS011;9573;50.948;11.600;2022-10-16T05:03:03;4.03;;;2.53;;
18881;SDS011;9573;50.948;11.600;2022-10-16T05:05:32;4.80;;;2.70;;
18881;SDS011;9573;50.948;11.600;2022-10-16T05:07:59;4.33;;;2.20;;
18881;SDS011;9573;50.948;11.600;2022-10-16T05:10:26;4.77;;;2.47;;
18881;SDS011;9573;50.948;11.600;2022-10-16T05:12:53;3.70;;;2.53;;
18881;SDS011;9573;50.948;11.600;2022-10-16T05:15:20;4.70;;;2.50;;
18881;SDS011;9573;50.948;11.600;2022-10-16T05:17:53;4.30;;;2.37;;
18881;SDS011;9573;50.948;11.600;2022-10-16T05:20:20;2.50;;;2.27;;
18881;SDS011;9573;50.948;11.600;2022-10-16T05:22:47;5.87;;;2.20;;
18881;SDS011;9573;50.948;11.600;2022-10-16T05:25:15;8.03;;;2.50;;
18881;SDS011;9573;50.948;11.600;2022-10-16T05:27:42;4.03;;;2.40;;
18881;SDS011;9573;50.948;11.600;2022-10-16T05:30:09;6.50;;;2.70;;
18881;SDS011;9573;50.948;11.600;2022-10-16T05:32:36;6.20;;;2.73;;
18881;SDS011;9573;50.948;11.600;2022-10-16T05:35:05;6.30;;;2.73;;
18881;SDS011;9573;50.948;11.600;2022-10-16T05:37:33;6.87;;;2.70;;
18881;SDS011;9573;50.948;11.600;2022-10-16T05:40:00;8.37;;;2.60;;
18881;SDS011;9573;50.948;11.600;2022-10-16T05:42:29;7.47;;;2.60;;
18881;SDS011;9573;50.948;11.600;2022-10-16T05:44:57;3.67;;;2.40;;
18881;SDS011;9573;50.948;11.600;2022-10-16T05:47:24;4.70;;;2.80;;
18881;SDS011;9573;50.948;11.600;2022-10-16T05:49:51;6.73;;;2.70;;
18881;SDS011;9573;50.948;11.600;2022-10-16T05:52:20;5.80;;;2.70;;
18881;SDS011;9573;50.948;11.600;2022-10-16T05:54:47;5.50;;;2.53;;
18881;SDS011;9573;50.948;11.600;2022-10-16T05:57:14;6.80;;;2.57;;
18881;SDS011;9573;50.948;11.600;2022-10-16T05:59:41;5.90;;;2.90;;
18881;SDS011;9573;50.948;11.600;2022-10-16T06:02:10;7.67;;;2.70;;
18881;SDS011;9573;50.948;11.600;2022-10-16T06:04:39;4.70;;;2.80;;
18881;SDS011;9573;50.948;11.600;2022-10-16T06:07:06;5.03;;;2.90;;
18881;SDS011;9573;50.948;11.600;2022-10-16T06:09:35;5.63;;;2.50;;
18881;SDS011;9573;50.948;11.600;2022-10-16T06:12:02;7.00;;;2.73;;
18881;SDS011;9573;50.948;11.600;2022-10-16T06:14:29;7.30;;;2.80;;
18881;SDS011;9573;50.948;11.600;2022-10-16T06:16:56;7.30;;;3.20;;
18881;SDS011;9573;50.948;11.600;2022-10-16T06:19:24;7.33;;;3.03;;
18881;SDS011;9573;50.948;11.600;2022-10-16T06:21:51;6.73;;;2.63;;
18881;SDS011;9573;50.948;11.600;2022-10-16T06:24:18;6.60;;;2.60;;
18881;SDS011;9573;50.948;11.600;2022-10-16T06:26:46;5.10;;;2.70;;
18881;SDS011;9573;50.948;11.600;2022-10-16T06:29:13;5.30;;;2.50;;
18881;SDS011;9573;50.948;11.600;2022-10-16T06:31:41;5.07;;;2.80;;
18881;SDS011;9573;50.948;11.600;2022-10-16T06:34:08;7.93;;;3.00;;
18881;SDS011;9573;50.948;11.600;2022-10-16T06:36:36;8.07;;;3.00;;
18881;SDS011;9573;50.948;11.600;2022-10-16T06:39:04;5.97;;;2.97;;
18881;SDS011;9573;50.948;11.600;2022-10-16T06:41:32;11.43;;;2.90;;
18881;SDS011;9573;50.948;11.600;2022-10-16T06:44:04;7.63;;;3.30;;
18881;SDS011;9573;50.948;11.600;2022-10-16T06:46:33;7.77;;;2.70;;
18881;SDS011;9573;50.948;11.600;2022-10-16T06:49:00;5.23;;;2.70;;
18881;SDS011;9573;50.948;11.600;2022-10-16T06:51:27;8.20;;;3.03;;
18881;SDS011;9573;50.948;11.600;2022-10-16T06:53:57;9.60;;;3.00;;
18881;SDS011;9573;50.948;11.600;2022-10-16T06:56:24;5.90;;;3.10;;
18881;SDS011;9573;50.948;11.600;2022-10-16T06:58:54;5.73;;;2.80;;
18881;SDS011;9573;50.948;11.600;2022-10-16T07:01:23;5.17;;;2.87;;
18881;SDS011;9573;50.948;11.600;2022-10-16T07:03:51;5.07;;;2.23;;
18881;SDS011;9573;50.948;11.600;2022-10-16T07:06:19;6.57;;;2.27;;
18881;SDS011;9573;50.948;11.600;2022-10-16T07:08:49;5.53;;;2.10;;
18881;SDS011;9573;50.948;11.600;2022-10-16T07:11:17;11.50;;;4.30;;
18881;SDS011;9573;50.948;11.600;2022-10-16T07:13:45;3.53;;;1.90;;
18881;SDS011;9573;50.948;11.600;2022-10-16T07:16:14;5.87;;;2.00;;
18881;SDS011;9573;50.948;11.600;2022-10-16T07:18:45;1.57;;;1.47;;
18881;SDS011;9573;50.948;11.600;2022-10-16T07:21:14;1.83;;;1.67;;
18881;SDS011;9573;50.948;11.600;2022-10-16T07:23:44;3.80;;;1.97;;
18881;SDS011;9573;50.948;11.600;2022-10-16T07:26:11;6.87;;;2.40;;
18881;SDS011;9573;50.948;11.600;2022-10-16T07:28:40;3.83;;;1.60;;
18881;SDS011;9573;50.948;11.600;2022-10-16T07:31:10;6.07;;;2.13;;
18881;SDS011;9573;50.948;11.600;2022-10-16T07:33:39;2.50;;;1.50;;
18881;SDS011;9573;50.948;11.600;2022-10-16T07:36:11;9.30;;;3.00;;
18881;SDS011;9573;50.948;11.600;2022-10-16T07:38:38;3.90;;;1.57;;
18881;SDS011;9573;50.948;11.600;2022-10-16T07:41:07;2.90;;;1.30;;
18881;SDS011;9573;50.948;11.600;2022-10-16T07:43:37;4.17;;;2.27;;
18881;SDS011;9573;50.948;11.600;2022-10-16T07:46:05;2.83;;;1.37;;
18881;SDS011;9573;50.948;11.600;2022-10-16T07:48:33;7.33;;;2.53;;
18881;SDS011;9573;50.948;11.600;2022-10-16T07:51:03;6.80;;;2.70;;
18881;SDS011;9573;50.948;11.600;2022-10-16T07:53:33;6.90;;;2.50;;
18881;SDS011;9573;50.948;11.600;2022-10-16T07:56:01;4.97;;;2.73;;
18881;SDS011;9573;50.948;11.600;2022-10-16T07:58:30;5.10;;;2.00;;
18881;SDS011;9573;50.948;11.600;2022-10-16T08:00:59;6.63;;;2.77;;
18881;SDS011;9573;50.948;11.600;2022-10-16T08:03:30;6.10;;;2.80;;
18881;SDS011;9573;50.948;11.600;2022-10-16T08:05:58;4.03;;;2.13;;
18881;SDS011;9573;50.948;11.600;2022-10-16T08:08:25;5.70;;;1.80;;
18881;SDS011;9573;50.948;11.600;2022-10-16T08:10:54;4.53;;;1.60;;
18881;SDS011;9573;50.948;11.600;2022-10-16T08:13:22;3.03;;;1.50;;
18881;SDS011;9573;50.948;11.600;2022-10-16T08:15:49;3.40;;;1.90;;
18881;SDS011;9573;50.948;11.600;2022-10-16T08:18:16;1.57;;;1.17;;
18881;SDS011;9573;50.948;11.600;2022-10-16T08:20:43;2.50;;;1.70;;
18881;SDS011;9573;50.948;11.600;2022-10-16T08:23:10;1.40;;;1.10;;
18881;SDS011;9573;50.948;11.600;2022-10-16T08:25:38;2.70;;;1.57;;
18881;SDS011;9573;50.948;11.600;2022-10-16T08:28:08;1.47;;;1.37;;
18881;SDS011;9573;50.948;11.600;2022-10-16T08:30:37;5.07;;;1.73;;
18881;SDS011;9573;50.948;11.600;2022-10-16T08:33:05;3.33;;;1.60;;
18881;SDS011;9573;50.948;11.600;2022-10-16T08:35:32;2.23;;;1.70;;
18881;SDS011;9573;50.948;11.600;2022-10-16T08:37:59;4.23;;;1.87;;
18881;SDS011;9573;50.948;11.600;2022-10-16T08:40:29;5.97;;;1.90;;
18881;SDS011;9573;50.948;11.600;2022-10-16T08:43:03;2.43;;;1.50;;
18881;SDS011;9573;50.948;11.600;2022-10-16T08:46:05;3.87;;;1.37;;
18881;SDS011;9573;50.948;11.600;2022-10-16T08:48:49;3.00;;;1.40;;
18881;SDS011;9573;50.948;11.600;2022-10-16T08:51:19;1.80;;;1.43;;
18881;SDS011;9573;50.948;11.600;2022-10-16T08:53:50;2.07;;;1.50;;
18881;SDS011;9573;50.948;11.600;2022-10-16T08:56:21;2.53;;;1.63;;
18881;SDS011;9573;50.948;11.600;2022-10-16T08:58:52;1.87;;;1.50;;
18881;SDS011;9573;50.948;11.600;2022-10-16T09:01:32;4.83;;;1.80;;
18881;SDS011;9573;50.948;11.600;2022-10-16T09:04:20;7.00;;;2.10;;
18881;SDS011;9573;50.948;11.600;2022-10-16T09:07:21;2.27;;;1.60;;
18881;SDS011;9573;50.948;11.600;2022-10-16T09:10:11;6.47;;;2.03;;
18881;SDS011;9573;50.948;11.600;2022-10-16T09:12:55;7.30;;;2.37;;
18881;SDS011;9573;50.948;11.600;2022-10-16T09:15:35;3.03;;;2.20;;
18881;SDS011;9573;50.948;11.600;2022-10-16T09:18:12;4.93;;;1.97;;
18881;SDS011;9573;50.948;11.600;2022-10-16T09:20:49;7.63;;;2.50;;
18881;SDS011;9573;50.948;11.600;2022-10-16T09:23:22;7.00;;;2.40;;
18881;SDS011;9573;50.948;11.600;2022-10-16T09:25:53;5.50;;;2.80;;
18881;SDS011;9573;50.948;11.600;2022-10-16T09:28:22;6.40;;;2.73;;
18881;SDS011;9573;50.948;11.600;2022-10-16T09:30:51;5.27;;;2.60;;
18881;SDS011;9573;50.948;11.600;2022-10-16T09:33:19;6.20;;;2.40;;
18881;SDS011;9573;50.948;11.600;2022-10-16T09:35:50;6.13;;;2.80;;
18881;SDS011;9573;50.948;11.600;2022-10-16T09:38:24;3.63;;;2.43;;
18881;SDS011;9573;50.948;11.600;2022-10-16T09:40:54;3.03;;;1.77;;
18881;SDS011;9573;50.948;11.600;2022-10-16T09:43:23;2.50;;;2.17;;
18881;SDS011;9573;50.948;11.600;2022-10-16T09:46:00;2.10;;;1.90;;
18881;SDS011;9573;50.948;11.600;2022-10-16T09:48:31;4.33;;;2.10;;
18881;SDS011;9573;50.948;11.600;2022-10-16T09:51:04;6.93;;;2.40;;
18881;SDS011;9573;50.948;11.600;2022-10-16T09:53:40;3.90;;;2.00;;
18881;SDS011;9573;50.948;11.600;2022-10-16T09:56:10;4.03;;;1.97;;
18881;SDS011;9573;50.948;11.600;2022-10-16T09:58:50;2.23;;;1.57;;
18881;SDS011;9573;50.948;11.600;2022-10-16T10:01:28;6.23;;;2.10;;
18881;SDS011;9573;50.948;11.600;2022-10-16T10:04:05;2.90;;;2.00;;
18881;SDS011;9573;50.948;11.600;2022-10-16T10:06:34;4.77;;;1.90;;
18881;SDS011;9573;50.948;11.600;2022-10-16T10:09:04;2.53;;;1.90;;
18881;SDS011;9573;50.948;11.600;2022-10-16T10:11:43;3.57;;;1.83;;
18881;SDS011;9573;50.948;11.600;2022-10-16T10:14:27;5.90;;;1.80;;
18881;SDS011;9573;50.948;11.600;2022-10-16T10:17:07;6.57;;;2.33;;
18881;SDS011;9573;50.948;11.600;2022-10-16T10:19:39;2.47;;;1.90;;
18881;SDS011;9573;50.948;11.600;2022-10-16T10:22:25;5.03;;;2.27;;
18881;SDS011;9573;50.948;11.600;2022-10-16T10:24:56;4.47;;;2.43;;
18881;SDS011;9573;50.948;11.600;2022-10-16T10:27:42;5.30;;;1.67;;
18881;SDS011;9573;50.948;11.600;2022-10-16T10:30:24;2.27;;;1.80;;
18881;SDS011;9573;50.948;11.600;2022-10-16T10:33:01;4.37;;;2.37;;
18881;SDS011;9573;50.948;11.600;2022-10-16T10:35:42;4.60;;;1.63;;
18881;SDS011;9573;50.948;11.600;2022-10-16T10:38:20;5.43;;;2.30;;
18881;SDS011;9573;50.948;11.600;2022-10-16T10:41:01;3.17;;;1.50;;
18881;SDS011;9573;50.948;11.600;2022-10-16T10:43:54;4.47;;;1.90;;
18881;SDS011;9573;50.948;11.600;2022-10-16T10:46:31;5.30;;;1.83;;
18881;SDS011;9573;50.948;11.600;2022-10-16T10:52:06;4.77;;;1.70;;
18881;SDS011;9573;50.948;11.600;2022-10-16T10:54:58;2.33;;;1.50;;
18881;SDS011;9573;50.948;11.600;2022-10-16T10:57:38;5.00;;;2.30;;
18881;SDS011;9573;50.948;11.600;2022-10-16T11:00:26;3.23;;;1.67;;
18881;SDS011;9573;50.948;11.600;2022-10-16T11:02:58;2.83;;;1.80;;
18881;SDS011;9573;50.948;11.600;2022-10-16T11:05:40;6.63;;;2.73;;
18881;SDS011;9573;50.948;11.600;2022-10-16T11:08:11;1.67;;;1.30;;
18881;SDS011;9573;50.948;11.600;2022-10-16T11:10:46;4.40;;;1.73;;
18881;SDS011;9573;50.948;11.600;2022-10-16T11:13:21;5.13;;;1.63;;
18881;SDS011;9573;50.948;11.600;2022-10-16T11:15:59;2.60;;;1.67;;
18881;SDS011;9573;50.948;11.600;2022-10-16T11:18:39;5.23;;;2.37;;
18881;SDS011;9573;50.948;11.600;2022-10-16T11:21:18;3.20;;;2.10;;
18881;SDS011;9573;50.948;11.600;2022-10-16T11:23:49;4.37;;;1.70;;
18881;SDS011;9573;50.948;11.600;2022-10-16T11:26:23;18.97;;;6.27;;
18881;SDS011;9573;50.948;11.600;2022-10-16T11:28:54;5.20;;;2.00;;
18881;SDS011;9573;50.948;11.600;2022-10-16T11:31:25;3.13;;;1.90;;
18881;SDS011;9573;50.948;11.600;2022-10-16T11:34:01;7.13;;;2.53;;
18881;SDS011;9573;50.948;11.600;2022-10-16T11:36:35;6.07;;;2.10;;
18881;SDS011;9573;50.948;11.600;2022-10-16T11:39:11;4.50;;;2.07;;
18881;SDS011;9573;50.948;11.600;2022-10-16T11:41:50;4.07;;;2.00;;
18881;SDS011;9573;50.948;11.600;2022-10-16T11:44:26;5.13;;;1.87;;
18881;SDS011;9573;50.948;11.600;2022-10-16T11:47:09;6.87;;;2.20;;
18881;SDS011;9573;50.948;11.600;2022-10-16T11:49:49;3.93;;;2.00;;
18881;SDS011;9573;50.948;11.600;2022-10-16T11:52:28;8.80;;;2.87;;
18881;SDS011;9573;50.948;11.600;2022-10-16T11:55:04;6.30;;;2.40;;
18881;SDS011;9573;50.948;11.600;2022-10-16T11:57:41;3.77;;;1.67;;
18881;SDS011;9573;50.948;11.600;2022-10-16T12:00:17;5.93;;;2.63;;
18881;SDS011;9573;50.948;11.600;2022-10-16T12:02:51;7.50;;;1.70;;
18881;SDS011;9573;50.948;11.600;2022-10-16T12:05:28;1.47;;;1.30;;
18881;SDS011;9573;50.948;11.600;2022-10-16T12:08:04;1.60;;;1.30;;
18881;SDS011;9573;50.948;11.600;2022-10-16T12:10:36;1.00;;;0.90;;
18881;SDS011;9573;50.948;11.600;2022-10-16T12:16:19;2.80;;;1.10;;
18881;SDS011;9573;50.948;11.600;2022-10-16T12:18:49;3.07;;;1.80;;
18881;SDS011;9573;50.948;11.600;2022-10-16T12:21:37;4.13;;;1.13;;
18881;SDS011;9573;50.948;11.600;2022-10-16T12:24:05;4.63;;;1.50;;
18881;SDS011;9573;50.948;11.600;2022-10-16T12:26:53;1.20;;;1.10;;
18881;SDS011;9573;50.948;11.600;2022-10-16T12:29:23;6.33;;;1.53;;
18881;SDS011;9573;50.948;11.600;2022-10-16T12:31:57;3.67;;;1.20;;
18881;SDS011;9573;50.948;11.600;2022-10-16T12:34:27;1.50;;;1.00;;
18881;SDS011;9573;50.948;11.600;2022-10-16T12:37:07;3.53;;;1.40;;
18881;SDS011;9573;50.948;11.600;2022-10-16T12:39:42;4.45;;;1.50;;
18881;SDS011;9573;50.948;11.600;2022-10-16T12:42:22;5.05;;;1.45;;
18881;SDS011;9573;50.948;11.600;2022-10-16T12:44:59;4.32;;;1.33;;
18881;SDS011;9573;50.948;11.600;2022-10-16T12:47:36;4.85;;;1.20;;
18881;SDS011;9573;50.948;11.600;2022-10-16T12:50:24;2.55;;;1.60;;
18881;SDS011;9573;50.948;11.600;2022-10-16T12:53:01;6.93;;;2.33;;
18881;SDS011;9573;50.948;11.600;2022-10-16T12:55:33;2.65;;;1.10;;
18881;SDS011;9573;50.948;11.600;2022-10-16T12:58:24;1.15;;;1.05;;
18881;SDS011;9573;50.948;11.600;2022-10-16T13:01:29;1.25;;;1.00;;
18881;SDS011;9573;50.948;11.600;2022-10-16T13:04:11;4.13;;;1.37;;
18881;SDS011;9573;50.948;11.600;2022-10-16T13:06:53;2.87;;;1.30;;
18881;SDS011;9573;50.948;11.600;2022-10-16T13:09:31;2.10;;;1.10;;
18881;SDS011;9573;50.948;11.600;2022-10-16T13:12:18;3.10;;;0.90;;
18881;SDS011;9573;50.948;11.600;2022-10-16T13:15:25;4.07;;;1.20;;
18881;SDS011;9573;50.948;11.600;2022-10-16T13:18:05;4.00;;;1.30;;
18881;SDS011;9573;50.948;11.600;2022-10-16T13:20:45;0.90;;;0.90;;
18881;SDS011;9573;50.948;11.600;2022-10-16T13:23:26;1.20;;;1.10;;
18881;SDS011;9573;50.948;11.600;2022-10-16T13:26:06;1.57;;;1.20;;
18881;SDS011;9573;50.948;11.600;2022-10-16T13:28:44;1.57;;;1.20;;
18881;SDS011;9573;50.948;11.600;2022-10-16T13:31:13;3.87;;;1.40;;
18881;SDS011;9573;50.948;11.600;2022-10-16T13:33:45;2.00;;;1.17;;
18881;SDS011;9573;50.948;11.600;2022-10-16T13:36:18;1.70;;;1.60;;
18881;SDS011;9573;50.948;11.600;2022-10-16T13:38:48;2.27;;;1.13;;
18881;SDS011;9573;50.948;11.600;2022-10-16T13:41:28;2.83;;;1.30;;
18881;SDS011;9573;50.948;11.600;2022-10-16T13:43:56;2.60;;;1.40;;
18881;SDS011;9573;50.948;11.600;2022-10-16T13:46:24;7.60;;;1.53;;
18881;SDS011;9573;50.948;11.600;2022-10-16T13:48:58;3.10;;;1.30;;
18881;SDS011;9573;50.948;11.600;2022-10-16T13:51:27;6.93;;;2.10;;
18881;SDS011;9573;50.948;11.600;2022-10-16T13:53:56;3.27;;;1.47;;
18881;SDS011;9573;50.948;11.600;2022-10-16T13:56:25;4.43;;;1.67;;
18881;SDS011;9573;50.948;11.600;2022-10-16T13:59:00;5.40;;;1.67;;
18881;SDS011;9573;50.948;11.600;2022-10-16T14:01:30;2.47;;;1.03;;
18881;SDS011;9573;50.948;11.600;2022-10-16T14:04:00;1.57;;;1.17;;
18881;SDS011;9573;50.948;11.600;2022-10-16T14:06:31;3.10;;;1.30;;
18881;SDS011;9573;50.948;11.600;2022-10-16T14:09:00;3.70;;;1.20;;
18881;SDS011;9573;50.948;11.600;2022-10-16T14:11:32;1.80;;;1.13;;
18881;SDS011;9573;50.948;11.600;2022-10-16T14:14:10;2.97;;;1.50;;
18881;SDS011;9573;50.948;11.600;2022-10-16T14:16:39;2.30;;;1.20;;
18881;SDS011;9573;50.948;11.600;2022-10-16T14:19:13;5.07;;;1.30;;
18881;SDS011;9573;50.948;11.600;2022-10-16T14:21:45;4.33;;;1.50;;
18881;SDS011;9573;50.948;11.600;2022-10-16T14:24:12;6.30;;;1.63;;
18881;SDS011;9573;50.948;11.600;2022-10-16T14:26:51;2.03;;;1.50;;
18881;SDS011;9573;50.948;11.600;2022-10-16T14:29:21;2.40;;;1.20;;
18881;SDS011;9573;50.948;11.600;2022-10-16T14:31:59;1.80;;;1.33;;
18881;SDS011;9573;50.948;11.600;2022-10-16T14:34:29;2.50;;;1.60;;
18881;SDS011;9573;50.948;11.600;2022-10-16T14:36:58;4.17;;;1.40;;
18881;SDS011;9573;50.948;11.600;2022-10-16T14:39:32;5.83;;;1.40;;
18881;SDS011;9573;50.948;11.600;2022-10-16T14:41:59;3.23;;;1.57;;
18881;SDS011;9573;50.948;11.600;2022-10-16T14:44:29;3.87;;;1.40;;
18881;SDS011;9573;50.948;11.600;2022-10-16T14:46:58;2.17;;;1.40;;
18881;SDS011;9573;50.948;11.600;2022-10-16T14:49:34;5.47;;;1.90;;
18881;SDS011;9573;50.948;11.600;2022-10-16T14:52:01;1.50;;;1.40;;
18881;SDS011;9573;50.948;11.600;2022-10-16T14:54:35;3.50;;;1.30;;
18881;SDS011;9573;50.948;11.600;2022-10-16T14:57:02;2.90;;;2.00;;
18881;SDS011;9573;50.948;11.600;2022-10-16T14:59:32;2.83;;;2.07;;
18881;SDS011;9573;50.948;11.600;2022-10-16T15:02:09;2.67;;;1.43;;
18881;SDS011;9573;50.948;11.600;2022-10-16T15:04:47;4.07;;;1.50;;
18881;SDS011;9573;50.948;11.600;2022-10-16T15:07:14;2.10;;;1.20;;
18881;SDS011;9573;50.948;11.600;2022-10-16T15:09:41;4.43;;;1.33;;
18881;SDS011;9573;50.948;11.600;2022-10-16T15:12:09;2.37;;;1.20;;
18881;SDS011;9573;50.948;11.600;2022-10-16T15:14:37;4.83;;;1.57;;
18881;SDS011;9573;50.948;11.600;2022-10-16T15:17:04;1.97;;;1.40;;
18881;SDS011;9573;50.948;11.600;2022-10-16T15:19:33;3.87;;;1.40;;
18881;SDS011;9573;50.948;11.600;2022-10-16T15:22:00;2.97;;;1.30;;